createdAt,value
2023-04-28T00:01:45.795Z,6.89
2023-04-28T00:04:13.057Z,6.94
2023-04-28T00:06:41.289Z,7.01
2023-04-28T00:09:11.327Z,6.78
2023-04-28T00:11:41.701Z,6.85
2023-04-28T00:14:08.558Z,6.62
2023-04-28T00:16:35.761Z,6.94
2023-04-28T00:19:02.728Z,6.88
2023-04-28T00:21:29.727Z,6.73
2023-04-28T00:23:56.604Z,6.77
2023-04-28T00:26:23.554Z,6.71
2023-04-28T00:28:50.929Z,6.76
2023-04-28T00:31:17.884Z,6.93
2023-04-28T00:33:44.875Z,6.91
2023-04-28T00:36:11.911Z,6.90
2023-04-28T00:38:38.869Z,7.01
2023-04-28T00:41:06.059Z,6.95
2023-04-28T00:43:32.945Z,7.04
2023-04-28T00:45:59.999Z,6.90
2023-04-28T00:48:27.916Z,6.99
2023-04-28T00:50:55.047Z,7.02
2023-04-28T00:53:22.113Z,7.12
2023-04-28T00:55:51.086Z,6.94
2023-04-28T00:58:18.033Z,6.94
2023-04-28T01:00:44.915Z,6.90
2023-04-28T01:03:12.375Z,6.66
2023-04-28T01:05:39.591Z,6.57
2023-04-28T01:08:06.602Z,6.47
2023-04-28T01:10:33.937Z,6.62
2023-04-28T01:13:07.962Z,6.61
2023-04-28T01:15:35.220Z,6.59
2023-04-28T01:18:02.226Z,6.81
2023-04-28T01:20:29.521Z,6.65
2023-04-28T01:22:56.374Z,6.95
2023-04-28T01:25:23.598Z,6.83
2023-04-28T01:27:50.597Z,6.98
2023-04-28T01:30:17.633Z,7.07
2023-04-28T01:32:44.562Z,6.78
2023-04-28T01:35:11.417Z,7.00
2023-04-28T01:37:38.384Z,6.83
2023-04-28T01:40:05.925Z,7.10
2023-04-28T01:42:32.876Z,7.04
2023-04-28T01:45:03.574Z,6.79
2023-04-28T01:47:30.710Z,6.89
2023-04-28T01:49:57.816Z,6.83
2023-04-28T01:52:24.754Z,6.61
2023-04-28T01:54:52.363Z,6.87
2023-04-28T01:57:20.584Z,6.93
2023-04-28T01:59:49.338Z,6.87
2023-04-28T02:02:16.549Z,6.80
2023-04-28T02:04:43.672Z,6.81
2023-04-28T02:07:10.739Z,6.59
2023-04-28T02:09:37.633Z,6.60
2023-04-28T02:12:04.816Z,6.73
2023-04-28T02:14:34.927Z,6.50
2023-04-28T02:17:03.545Z,6.49
2023-04-28T02:19:30.433Z,6.56
2023-04-28T02:21:57.310Z,6.65
2023-04-28T02:24:24.220Z,6.62
2023-04-28T02:26:51.098Z,6.35
2023-04-28T02:29:18.246Z,6.41
2023-04-28T02:31:45.129Z,6.46
2023-04-28T02:34:12.082Z,6.25
2023-04-28T02:36:39.632Z,6.37
2023-04-28T02:39:07.548Z,6.53
2023-04-28T02:41:34.930Z,6.63
2023-04-28T02:44:01.970Z,6.68
2023-04-28T02:46:29.191Z,6.57
2023-04-28T02:48:57.434Z,6.30
2023-04-28T02:51:24.290Z,6.53
2023-04-28T02:53:51.321Z,6.52
2023-04-28T02:56:18.296Z,6.38
2023-04-28T02:58:45.271Z,6.17
2023-04-28T03:01:12.312Z,6.51
2023-04-28T03:03:39.396Z,6.68
2023-04-28T03:06:06.640Z,6.36
2023-04-28T03:08:33.525Z,6.44
2023-04-28T03:11:00.881Z,6.39
2023-04-28T03:13:30.243Z,6.31
2023-04-28T03:15:57.632Z,6.55
2023-04-28T03:18:24.755Z,6.33
2023-04-28T03:20:51.824Z,6.42
2023-04-28T03:23:19.928Z,6.34
2023-04-28T03:25:46.802Z,6.25
2023-04-28T03:28:13.742Z,6.01
2023-04-28T03:30:40.790Z,6.33
2023-04-28T03:33:07.871Z,6.38
2023-04-28T03:35:34.957Z,6.37
2023-04-28T03:38:01.848Z,6.35
2023-04-28T03:40:28.698Z,6.32
2023-04-28T03:43:15.830Z,6.32
2023-04-28T03:46:04.440Z,6.57
2023-04-28T03:48:31.361Z,6.62
2023-04-28T03:50:58.275Z,6.51
2023-04-28T03:53:25.913Z,6.46
2023-04-28T03:55:53.451Z,6.50
2023-04-28T03:58:20.584Z,6.35
2023-04-28T04:00:47.531Z,6.22
2023-04-28T04:03:14.567Z,6.43
2023-04-28T04:05:43.911Z,6.50
2023-04-28T04:08:11.312Z,6.32
2023-04-28T04:10:38.337Z,6.42
2023-04-28T04:13:05.726Z,6.39
2023-04-28T04:15:32.781Z,6.50
2023-04-28T04:17:59.822Z,6.40
2023-04-28T04:20:31.900Z,6.43
2023-04-28T04:22:58.784Z,6.58
2023-04-28T04:25:25.782Z,6.30
2023-04-28T04:27:53.368Z,6.35
2023-04-28T04:30:20.852Z,6.65
2023-04-28T04:32:47.824Z,6.63
2023-04-28T04:35:14.853Z,6.66
2023-04-28T04:37:41.819Z,6.52
2023-04-28T04:40:09.382Z,6.67
2023-04-28T04:42:43.275Z,6.81
2023-04-28T04:45:17.949Z,6.79
2023-04-28T04:47:45.071Z,6.76
2023-04-28T04:50:12.518Z,6.82
2023-04-28T04:52:39.694Z,7.03
2023-04-28T04:55:07.628Z,6.97
2023-04-28T04:57:34.533Z,6.99
2023-04-28T05:00:18.413Z,7.11
2023-04-28T05:02:46.111Z,7.18
2023-04-28T05:05:21.240Z,7.02
2023-04-28T05:08:04.021Z,7.14
2023-04-28T05:10:31.053Z,7.37
2023-04-28T05:12:58.993Z,7.06
2023-04-28T05:15:26.207Z,7.27
2023-04-28T05:18:13.925Z,7.30
2023-04-28T05:20:40.908Z,7.38
2023-04-28T05:23:08.433Z,7.18
2023-04-28T05:25:35.404Z,7.28
2023-04-28T05:28:07.834Z,7.24
2023-04-28T05:30:34.923Z,7.32
2023-04-28T05:33:02.213Z,7.51
2023-04-28T05:35:29.443Z,7.38
2023-04-28T05:37:56.578Z,7.40
2023-04-28T05:40:23.432Z,7.52
2023-04-28T05:42:50.278Z,7.45
2023-04-28T05:45:17.234Z,7.56
2023-04-28T05:47:44.301Z,7.57
2023-04-28T05:50:11.409Z,7.59
2023-04-28T05:52:38.545Z,7.46
2023-04-28T05:55:05.781Z,7.70
2023-04-28T05:57:38.944Z,7.55
2023-04-28T06:00:17.528Z,7.81
2023-04-28T06:02:44.525Z,7.68
2023-04-28T06:05:11.964Z,7.74
2023-04-28T06:07:39.147Z,7.69
2023-04-28T06:10:06.725Z,7.67
2023-04-28T06:12:33.659Z,7.95
2023-04-28T06:15:01.300Z,7.96
2023-04-28T06:17:28.362Z,7.81
2023-04-28T06:19:55.991Z,7.81
2023-04-28T06:22:22.820Z,7.53
2023-04-28T06:24:49.792Z,7.67
2023-04-28T06:27:20.005Z,7.68
2023-04-28T06:29:46.913Z,7.70
2023-04-28T06:32:13.782Z,7.62
2023-04-28T06:34:42.113Z,7.80
2023-04-28T06:37:08.950Z,7.80
2023-04-28T06:39:36.058Z,7.61
2023-04-28T06:42:03.511Z,7.64
2023-04-28T06:44:34.818Z,7.78
2023-04-28T06:47:03.626Z,7.87
2023-04-28T06:49:30.518Z,7.63
2023-04-28T06:52:00.186Z,7.81
2023-04-28T06:54:30.213Z,7.97
2023-04-28T06:56:57.111Z,7.82
2023-04-28T06:59:24.676Z,8.00
2023-04-28T07:01:51.551Z,8.07
2023-04-28T07:04:18.642Z,8.00
2023-04-28T07:06:46.031Z,7.81
2023-04-28T07:09:13.138Z,7.84
2023-04-28T07:11:39.992Z,7.99
2023-04-28T07:14:08.440Z,7.93
2023-04-28T07:16:36.292Z,7.85
2023-04-28T07:19:03.230Z,7.81
2023-04-28T07:21:30.177Z,7.97
2023-04-28T07:23:57.303Z,8.17
2023-04-28T07:26:24.390Z,8.08
2023-04-28T07:28:51.873Z,7.99
2023-04-28T07:31:18.835Z,8.03
2023-04-28T07:33:45.770Z,7.82
2023-04-28T07:36:12.602Z,8.04
2023-04-28T07:38:39.546Z,8.33
2023-04-28T07:41:07.712Z,8.56
2023-04-28T07:43:37.056Z,8.70
2023-04-28T07:46:04.117Z,8.80
2023-04-28T07:48:32.622Z,8.45
2023-04-28T07:50:59.494Z,8.72
2023-04-28T07:53:26.666Z,8.86
2023-04-28T07:55:53.586Z,8.93
2023-04-28T07:58:20.547Z,8.69
2023-04-28T08:00:47.456Z,8.72
2023-04-28T08:03:14.526Z,8.83
2023-04-28T08:05:41.708Z,8.94
2023-04-28T08:08:08.591Z,8.96
2023-04-28T08:10:35.450Z,9.08
2023-04-28T08:13:03.014Z,9.01
2023-04-28T08:15:30.005Z,9.25
2023-04-28T08:17:57.041Z,8.97
2023-04-28T08:20:24.773Z,8.99
2023-04-28T08:22:52.031Z,9.10
2023-04-28T08:25:18.841Z,8.89
2023-04-28T08:27:45.776Z,8.72
2023-04-28T08:30:12.828Z,8.76
2023-04-28T08:32:39.702Z,8.53
2023-04-28T08:35:07.363Z,8.33
2023-04-28T08:37:37.044Z,8.78
2023-04-28T08:40:10.093Z,8.74
2023-04-28T08:42:37.810Z,8.85
2023-04-28T08:45:05.784Z,8.99
2023-04-28T08:47:36.733Z,8.99
2023-04-28T08:50:08.693Z,9.03
2023-04-28T08:52:36.875Z,8.83
2023-04-28T08:55:10.062Z,8.74
2023-04-28T08:57:44.492Z,8.85
2023-04-28T09:00:12.278Z,8.64
2023-04-28T09:02:42.515Z,8.72
2023-04-28T09:05:11.840Z,8.70
2023-04-28T09:07:39.103Z,8.69
2023-04-28T09:10:23.766Z,8.74
2023-04-28T09:12:56.177Z,8.60
2023-04-28T09:15:32.660Z,8.73
2023-04-28T09:18:02.421Z,8.72
2023-04-28T09:20:31.640Z,8.70
2023-04-28T09:23:31.012Z,8.77
2023-04-28T09:26:06.655Z,8.84
2023-04-28T09:28:35.371Z,8.85
2023-04-28T09:31:02.803Z,8.82
2023-04-28T09:33:30.067Z,8.80
2023-04-28T09:35:57.014Z,8.75
2023-04-28T09:38:23.979Z,8.88
2023-04-28T09:41:02.079Z,8.77
2023-04-28T09:43:34.579Z,8.85
2023-04-28T09:46:03.809Z,8.71
2023-04-28T09:48:33.843Z,8.88
2023-04-28T09:51:03.518Z,8.78
2023-04-28T09:53:31.192Z,8.98
2023-04-28T09:56:00.174Z,8.84
2023-04-28T09:58:28.228Z,8.81
2023-04-28T10:01:00.394Z,8.83
2023-04-28T10:03:30.154Z,9.08
2023-04-28T10:05:59.224Z,8.88
2023-04-28T10:08:27.650Z,8.87
2023-04-28T10:10:55.807Z,8.85
2023-04-28T10:13:23.493Z,8.79
2023-04-28T10:15:51.522Z,8.84
2023-04-28T10:18:18.954Z,8.87
2023-04-28T10:20:49.025Z,8.62
2023-04-28T10:23:47.213Z,8.77
2023-04-28T10:26:15.792Z,8.97
2023-04-28T10:28:50.943Z,8.88
2023-04-28T10:31:23.579Z,8.52
2023-04-28T10:33:50.793Z,9.06
2023-04-28T10:36:55.186Z,9.16
2023-04-28T10:39:22.132Z,9.10
2023-04-28T10:41:49.456Z,8.94
2023-04-28T10:44:28.551Z,8.95
2023-04-28T10:47:09.927Z,8.71
2023-04-28T10:49:55.705Z,9.03
2023-04-28T10:52:40.982Z,8.85
2023-04-28T10:55:28.937Z,8.91
2023-04-28T10:58:18.382Z,8.88
2023-04-28T11:00:46.002Z,8.73
2023-04-28T11:03:52.504Z,8.80
2023-04-28T11:06:41.834Z,9.02
2023-04-28T11:09:17.796Z,9.01
2023-04-28T11:12:00.008Z,9.02
2023-04-28T11:14:32.934Z,8.96
2023-04-28T11:17:01.924Z,8.95
2023-04-28T11:19:33.322Z,9.11
2023-04-28T11:22:03.029Z,9.09
2023-04-28T11:24:31.225Z,8.88
2023-04-28T11:27:01.345Z,8.73
2023-04-28T11:29:36.112Z,8.86
2023-04-28T11:32:04.515Z,9.04
2023-04-28T11:34:32.133Z,9.01
2023-04-28T11:36:59.168Z,8.96
2023-04-28T11:39:31.244Z,9.05
2023-04-28T11:42:10.993Z,9.22
2023-04-28T11:44:38.301Z,9.30
2023-04-28T11:47:06.570Z,9.44
2023-04-28T11:49:43.781Z,9.46
2023-04-28T11:52:11.989Z,9.50
2023-04-28T11:54:39.380Z,9.45
2023-04-28T11:57:06.819Z,9.53
2023-04-28T11:59:35.689Z,9.32
2023-04-28T12:02:05.227Z,9.61
2023-04-28T12:04:35.892Z,9.60
2023-04-28T12:07:15.411Z,9.62
2023-04-28T12:09:44.588Z,9.31
2023-04-28T12:12:18.354Z,9.31
2023-04-28T12:15:05.511Z,9.27
2023-04-28T12:17:41.758Z,9.40
2023-04-28T12:20:11.999Z,9.45
2023-04-28T12:22:46.999Z,9.64
2023-04-28T12:25:16.808Z,9.61
2023-04-28T12:28:05.840Z,9.69
2023-04-28T12:30:44.297Z,9.69
2023-04-28T12:33:25.336Z,9.55
2023-04-28T12:35:55.359Z,9.67
2023-04-28T12:38:23.416Z,9.58
2023-04-28T12:40:50.323Z,9.75
2023-04-28T12:43:17.212Z,9.86
2023-04-28T12:45:44.100Z,9.67
2023-04-28T12:48:11.234Z,9.64
2023-04-28T12:50:38.088Z,9.86
2023-04-28T12:53:05.347Z,9.96
2023-04-28T12:55:32.450Z,9.93
2023-04-28T12:57:59.666Z,9.88
2023-04-28T13:00:26.672Z,10.03
2023-04-28T13:02:53.762Z,10.09
2023-04-28T13:05:20.986Z,10.01
2023-04-28T13:07:49.591Z,10.10
2023-04-28T13:10:16.995Z,10.20
2023-04-28T13:12:44.094Z,9.80
2023-04-28T13:15:11.733Z,9.94
2023-04-28T13:17:38.736Z,10.10
2023-04-28T13:20:06.943Z,9.87
2023-04-28T13:22:33.786Z,10.08
2023-04-28T13:25:00.654Z,10.09
2023-04-28T13:27:30.524Z,10.00
2023-04-28T13:29:59.420Z,10.23
2023-04-28T13:32:26.436Z,10.22
2023-04-28T13:34:53.340Z,10.10
2023-04-28T13:37:20.256Z,10.07
2023-04-28T13:39:47.191Z,10.27
2023-04-28T13:42:14.302Z,10.26
2023-04-28T13:44:41.438Z,10.06
2023-04-28T13:47:10.028Z,10.21
2023-04-28T13:49:37.879Z,10.29
2023-04-28T13:52:04.916Z,10.23
2023-04-28T13:54:31.853Z,10.26
2023-04-28T13:56:58.768Z,10.02
2023-04-28T13:59:25.709Z,10.15
2023-04-28T14:01:52.577Z,10.17
2023-04-28T14:04:19.906Z,10.17
2023-04-28T14:06:46.933Z,9.85
2023-04-28T14:09:13.825Z,10.10
2023-04-28T14:11:40.660Z,10.08
2023-04-28T14:14:07.565Z,10.16
2023-04-28T14:16:34.459Z,10.05
2023-04-28T14:19:01.952Z,9.79
2023-04-28T14:21:29.006Z,10.19
2023-04-28T14:23:55.851Z,10.24
2023-04-28T14:26:24.040Z,10.26
2023-04-28T14:28:51.070Z,10.08
2023-04-28T14:31:18.374Z,10.26
2023-04-28T14:33:45.238Z,10.28
2023-04-28T14:36:12.116Z,10.28
2023-04-28T14:38:40.270Z,10.11
2023-04-28T14:41:07.274Z,10.37
2023-04-28T14:43:34.261Z,10.17
2023-04-28T14:46:01.344Z,10.40
2023-04-28T14:48:28.350Z,10.21
2023-04-28T14:50:55.272Z,10.06
2023-04-28T14:53:22.144Z,10.29
2023-04-28T14:55:49.115Z,10.20
2023-04-28T14:58:16.310Z,10.23
2023-04-28T15:00:43.889Z,10.18
2023-04-28T15:03:10.888Z,10.42
2023-04-28T15:05:37.817Z,10.43
2023-04-28T15:08:04.937Z,10.26
2023-04-28T15:10:38.815Z,10.23
2023-04-28T15:13:07.579Z,10.37
2023-04-28T15:15:35.122Z,10.18
2023-04-28T15:18:02.283Z,10.07
2023-04-28T15:20:37.344Z,10.18
2023-04-28T15:23:04.296Z,9.90
2023-04-28T15:25:31.255Z,10.14
2023-04-28T15:27:58.511Z,10.20
2023-04-28T15:30:25.394Z,10.14
2023-04-28T15:32:52.317Z,10.15
2023-04-28T15:35:19.411Z,10.05
2023-04-28T15:37:52.245Z,9.92
2023-04-28T15:40:20.021Z,10.28
2023-04-28T15:42:52.392Z,10.24
2023-04-28T15:45:22.798Z,10.29
2023-04-28T15:47:51.036Z,10.21
2023-04-28T15:50:19.805Z,10.14
2023-04-28T15:52:48.076Z,10.12
2023-04-28T15:55:16.835Z,10.06
2023-04-28T15:57:44.524Z,10.18
2023-04-28T16:00:11.942Z,10.31
2023-04-28T16:02:39.513Z,10.17
2023-04-28T16:05:07.448Z,10.28
2023-04-28T16:07:44.701Z,10.17
2023-04-28T16:10:14.014Z,10.50
2023-04-28T16:12:42.119Z,10.69
2023-04-28T16:15:11.150Z,10.66
2023-04-28T16:17:38.817Z,10.58
2023-04-28T16:20:07.663Z,10.60
2023-04-28T16:22:35.974Z,10.50
2023-04-28T16:25:05.924Z,10.47
2023-04-28T16:27:33.746Z,10.71
2023-04-28T16:30:00.842Z,10.69
2023-04-28T16:32:27.748Z,10.83
2023-04-28T16:34:58.672Z,10.51
2023-04-28T16:37:26.127Z,10.66
2023-04-28T16:39:53.091Z,10.61
2023-04-28T16:42:23.009Z,10.57
2023-04-28T16:44:52.645Z,10.47
2023-04-28T16:47:20.198Z,10.54
2023-04-28T16:49:47.337Z,10.80
2023-04-28T16:52:14.588Z,10.78
2023-04-28T16:54:41.905Z,10.72
2023-04-28T16:57:15.241Z,10.32
2023-04-28T16:59:42.176Z,10.80
2023-04-28T17:02:09.068Z,10.76
2023-04-28T17:04:36.909Z,10.71
2023-04-28T17:07:05.552Z,10.69
2023-04-28T17:09:33.556Z,10.71
2023-04-28T17:12:01.082Z,10.75
2023-04-28T17:14:28.117Z,10.15
2023-04-28T17:16:55.137Z,10.54
2023-04-28T17:19:22.619Z,10.62
2023-04-28T17:21:52.638Z,10.59
2023-04-28T17:24:19.638Z,10.73
2023-04-28T17:26:46.571Z,10.68
2023-04-28T17:29:13.489Z,10.65
2023-04-28T17:31:40.516Z,10.60
2023-04-28T17:34:07.605Z,10.63
2023-04-28T17:36:34.975Z,10.61
2023-04-28T17:39:03.835Z,10.76
2023-04-28T17:41:32.166Z,10.59
2023-04-28T17:43:59.325Z,10.75
2023-04-28T17:46:26.570Z,10.54
2023-04-28T17:48:53.634Z,10.59
2023-04-28T17:51:21.281Z,10.60
2023-04-28T17:53:49.004Z,10.48
2023-04-28T17:56:16.528Z,10.51
2023-04-28T17:58:43.654Z,10.54
2023-04-28T18:01:10.607Z,10.38
2023-04-28T18:03:38.972Z,10.48
2023-04-28T18:06:08.133Z,10.30
2023-04-28T18:08:37.053Z,10.61
2023-04-28T18:11:05.192Z,10.64
2023-04-28T18:13:33.380Z,10.62
2023-04-28T18:16:01.345Z,10.50
2023-04-28T18:18:30.553Z,10.32
2023-04-28T18:20:59.357Z,10.37
2023-04-28T18:23:27.294Z,10.36
2023-04-28T18:25:54.346Z,10.09
2023-04-28T18:28:21.405Z,10.20
2023-04-28T18:30:48.543Z,10.14
2023-04-28T18:33:15.969Z,10.12
2023-04-28T18:35:42.929Z,10.14
2023-04-28T18:38:10.159Z,10.04
2023-04-28T18:40:38.917Z,10.19
2023-04-28T18:43:07.217Z,10.13
2023-04-28T18:45:36.507Z,10.22
2023-04-28T18:48:04.487Z,10.08
2023-04-28T18:50:32.673Z,9.98
2023-04-28T18:53:04.564Z,10.15
2023-04-28T18:55:34.634Z,9.97
2023-04-28T18:58:04.411Z,9.94
2023-04-28T19:00:32.882Z,9.93
2023-04-28T19:03:00.705Z,9.97
2023-04-28T19:05:27.925Z,10.05
2023-04-28T19:07:54.788Z,10.13
2023-04-28T19:10:24.670Z,9.93
2023-04-28T19:12:51.731Z,10.18
2023-04-28T19:15:19.066Z,10.13
2023-04-28T19:17:45.966Z,10.20
2023-04-28T19:20:13.754Z,9.96
2023-04-28T19:22:44.505Z,10.13
2023-04-28T19:25:11.890Z,10.01
2023-04-28T19:27:41.094Z,10.14
2023-04-28T19:30:10.570Z,10.08
2023-04-28T19:32:37.861Z,10.15
2023-04-28T19:35:05.268Z,10.04
2023-04-28T19:37:35.934Z,9.84
2023-04-28T19:40:07.539Z,9.92
2023-04-28T19:42:38.960Z,10.03
2023-04-28T19:45:06.671Z,9.87
2023-04-28T19:47:37.982Z,9.95
2023-04-28T19:50:05.579Z,10.06
2023-04-28T19:52:33.917Z,9.88
2023-04-28T19:55:01.161Z,10.11
2023-04-28T19:57:31.250Z,9.97
2023-04-28T19:59:58.635Z,10.19
2023-04-28T20:02:25.813Z,10.18
2023-04-28T20:04:52.964Z,10.06
2023-04-28T20:07:20.066Z,9.97
2023-04-28T20:09:47.343Z,9.83
2023-04-28T20:12:15.462Z,10.14
2023-04-28T20:14:44.584Z,10.05
2023-04-28T20:17:11.639Z,9.97
2023-04-28T20:19:38.971Z,10.04
2023-04-28T20:22:08.396Z,9.95
2023-04-28T20:24:36.469Z,10.08
2023-04-28T20:27:04.450Z,10.06
2023-04-28T20:29:34.813Z,10.02
2023-04-28T20:32:02.740Z,10.08
2023-04-28T20:34:29.726Z,10.08
2023-04-28T20:36:58.308Z,10.02
2023-04-28T20:39:25.919Z,10.16
2023-04-28T20:41:52.808Z,10.13
2023-04-28T20:44:19.701Z,10.23
2023-04-28T20:46:46.709Z,10.24
2023-04-28T20:49:13.821Z,10.17
2023-04-28T20:51:48.090Z,10.51
2023-04-28T20:54:15.397Z,10.49
2023-04-28T20:56:43.174Z,10.50
2023-04-28T20:59:10.074Z,10.47
2023-04-28T21:01:37.412Z,10.32
2023-04-28T21:04:04.534Z,10.12
2023-04-28T21:06:31.583Z,10.21
2023-04-28T21:08:58.557Z,10.24
2023-04-28T21:11:25.568Z,10.12
2023-04-28T21:13:52.664Z,10.08
2023-04-28T21:16:21.721Z,10.24
2023-04-28T21:18:49.781Z,10.29
2023-04-28T21:21:17.209Z,10.34
2023-04-28T21:23:44.509Z,10.23
2023-04-28T21:26:11.609Z,10.12
2023-04-28T21:28:40.082Z,10.14
2023-04-28T21:31:07.422Z,10.31
2023-04-28T21:33:34.605Z,9.96
2023-04-28T21:36:08.832Z,10.20
2023-04-28T21:38:39.707Z,10.27
2023-04-28T21:41:07.891Z,10.52
2023-04-28T21:43:35.467Z,10.66
2023-04-28T21:46:02.457Z,10.16
2023-04-28T21:48:29.572Z,10.47
2023-04-28T21:50:57.211Z,10.37
2023-04-28T21:53:24.156Z,10.15
2023-04-28T21:55:51.132Z,10.20
2023-04-28T21:58:18.064Z,10.05
2023-04-28T22:00:47.335Z,10.29
2023-04-28T22:03:15.704Z,10.14
2023-04-28T22:05:44.480Z,10.26
2023-04-28T22:08:12.137Z,10.40
2023-04-28T22:10:39.382Z,10.55
2023-04-28T22:13:06.850Z,10.18
2023-04-28T22:15:34.170Z,10.14
2023-04-28T22:18:01.341Z,10.41
2023-04-28T22:20:28.478Z,10.25
2023-04-28T22:22:57.920Z,10.41
2023-04-28T22:25:25.536Z,10.41
2023-04-28T22:27:52.585Z,10.48
2023-04-28T22:30:19.802Z,10.43
2023-04-28T22:32:47.710Z,10.21
2023-04-28T22:35:16.917Z,10.13
2023-04-28T22:37:44.413Z,10.18
2023-04-28T22:40:11.600Z,10.27
2023-04-28T22:42:40.425Z,10.39
2023-04-28T22:45:08.084Z,10.44
2023-04-28T22:47:35.377Z,10.38
2023-04-28T22:50:06.640Z,10.18
2023-04-28T22:52:34.528Z,10.34
2023-04-28T22:55:01.631Z,10.24
2023-04-28T22:57:29.031Z,10.33
2023-04-28T22:59:56.304Z,10.09
2023-04-28T23:02:23.701Z,10.28
2023-04-28T23:04:51.279Z,10.27
2023-04-28T23:07:18.381Z,10.22
2023-04-28T23:09:45.445Z,10.30
2023-04-28T23:12:12.735Z,10.19
2023-04-28T23:14:39.864Z,10.24
2023-04-28T23:17:06.884Z,10.15
2023-04-28T23:19:35.863Z,10.04
2023-04-28T23:22:02.948Z,10.19
2023-04-28T23:24:29.906Z,9.79
2023-04-28T23:26:56.952Z,9.96
2023-04-28T23:29:24.155Z,9.98
2023-04-28T23:31:55.017Z,9.95
2023-04-28T23:34:23.217Z,9.96
2023-04-28T23:36:51.259Z,10.03
2023-04-28T23:39:18.265Z,9.88
2023-04-28T23:41:45.311Z,10.12
2023-04-28T23:44:12.389Z,10.20
2023-04-28T23:46:39.375Z,10.18
2023-04-28T23:49:06.345Z,10.31
2023-04-28T23:51:33.425Z,10.02
2023-04-28T23:54:00.454Z,10.32
2023-04-28T23:56:27.602Z,9.91
2023-04-28T23:58:54.723Z,10.16
